Time;durP1;ratioP1;P1;durP2;ratioP2;P2;SDS_P1;SDS_P2;PMS_P1;PMS_P2;Temp;Humidity;BMP_temperature;BMP_pressure;BME280_temperature;BME280_humidity;BME280_pressure;Samples;Min_cycle;Max_cycle;Signal;HPM_P1;HPM_P2
2021/09/23 00:00:16;;;;;;;6.00;3.33;;;;;;;16.22;49.09;101533.62;1729737;83;21032;-49
2021/09/23 00:05:17;;;;;;;3.42;3.10;;;;;;;16.17;49.45;101532.93;1728531;82;21073;-50
2021/09/23 00:07:44;;;;;;;3.30;3.00;;;;;;;16.16;49.55;101529.89;1654991;86;21094;-50
2021/09/23 00:10:26;;;;;;;3.80;3.17;;;;;;;16.17;49.67;101532.93;1660717;86;21043;-50
2021/09/23 00:12:55;;;;;;;3.00;2.75;;;;;;;16.19;49.57;101528.94;1659512;86;21155;-49
2021/09/23 00:15:22;;;;;;;5.00;3.60;;;;;;;16.19;49.62;101525.86;1659569;86;21039;-50
2021/09/23 00:17:52;;;;;;;3.92;3.42;;;;;;;16.19;49.56;101527.17;1657078;86;21039;-50
2021/09/23 00:20:23;;;;;;;4.83;3.55;;;;;;;16.19;49.72;101532.42;1657057;86;21071;-50
2021/09/23 00:22:49;;;;;;;4.07;3.67;;;;;;;16.20;49.71;101532.81;1657762;86;21622;-50
2021/09/23 00:25:16;;;;;;;4.08;3.50;;;;;;;16.21;49.57;101526.67;1656538;85;21096;-49
2021/09/23 00:27:43;;;;;;;4.58;3.77;;;;;;;16.21;49.73;101537.17;1657620;86;21001;-50
2021/09/23 00:30:12;;;;;;;4.22;3.83;;;;;;;16.18;49.86;101535.95;1658280;85;21572;-46
2021/09/23 00:32:39;;;;;;;4.33;3.92;;;;;;;16.17;49.88;101532.93;1656154;85;21576;-49
2021/09/23 00:35:07;;;;;;;3.60;3.27;;;;;;;16.14;49.98;101531.70;1653874;86;21041;-50
2021/09/23 00:37:34;;;;;;;3.87;3.47;;;;;;;16.13;50.17;101537.02;1657184;85;21525;-50
2021/09/23 00:40:08;;;;;;;4.87;3.60;;;;;;;16.13;50.27;101536.56;1656960;86;21021;-50
2021/09/23 00:42:33;;;;;;;4.53;3.65;;;;;;;16.12;50.27;101534.84;1657349;86;21036;-49
2021/09/23 00:45:01;;;;;;;4.03;3.72;;;;;;;16.12;50.24;101540.08;1648336;86;21049;-50
2021/09/23 00:47:30;;;;;;;4.33;3.92;;;;;;;16.13;50.30;101534.39;1663001;86;21523;-49
2021/09/23 00:49:57;;;;;;;4.62;4.22;;;;;;;16.13;50.38;101531.31;1657183;86;21057;-52
2021/09/23 00:52:25;;;;;;;4.67;4.28;;;;;;;16.12;50.42;101533.97;1657112;86;21037;-50
2021/09/23 00:54:52;;;;;;;4.67;4.25;;;;;;;16.14;50.46;101528.21;1672928;84;22393;-49
2021/09/23 00:57:21;;;;;;;5.20;4.37;;;;;;;16.15;50.50;101529.50;1686422;84;21462;-50
2021/09/23 00:59:51;;;;;;;5.20;4.58;;;;;;;16.14;50.65;101529.08;1687954;84;21068;-49
2021/09/23 01:02:20;;;;;;;5.30;4.53;;;;;;;16.15;50.66;101530.81;1649866;84;21045;-50
2021/09/23 01:04:49;;;;;;;5.92;5.22;;;;;;;16.15;50.69;101533.44;1728562;81;21024;-51
2021/09/23 01:07:19;;;;;;;8.43;5.17;;;;;;;16.13;50.88;101530.00;1724983;81;21003;-50
2021/09/23 01:09:51;;;;;;;9.10;5.17;;;;;;;16.11;51.12;101530.51;1739148;81;21069;-50
2021/09/23 01:12:24;;;;;;;5.80;5.05;;;;;;;16.10;51.41;101526.59;1743127;81;21581;-46
2021/09/23 01:14:53;;;;;;;5.30;4.80;;;;;;;16.09;51.59;101527.52;1731847;81;21082;-50
2021/09/23 01:17:22;;;;;;;4.72;4.33;;;;;;;16.08;51.57;101525.34;1744787;81;21106;-49
2021/09/23 01:19:54;;;;;;;6.12;4.92;;;;;;;16.07;51.72;101524.92;1738961;80;21555;-49
2021/09/23 01:22:23;;;;;;;6.78;5.10;;;;;;;16.06;51.72;101525.84;1740292;82;21027;-49
2021/09/23 01:25:05;;;;;;;5.00;4.60;;;;;;;16.07;51.92;101527.55;1624036;88;21061;-48
2021/09/23 01:27:33;;;;;;;5.55;4.72;;;;;;;16.07;52.04;101527.55;1623862;88;21026;-49
2021/09/23 01:30:01;;;;;;;12.00;5.12;;;;;;;16.09;51.97;101531.45;1623512;88;20998;-46
2021/09/23 01:32:29;;;;;;;5.62;4.47;;;;;;;16.09;52.06;101530.14;1568686;90;21027;-49
2021/09/23 01:34:57;;;;;;;5.08;4.53;;;;;;;16.09;52.03;101528.35;1616290;88;21090;-49
2021/09/23 01:37:24;;;;;;;4.50;4.10;;;;;;;16.10;52.12;101523.97;1582033;90;21075;-49
2021/09/23 01:39:52;;;;;;;7.72;4.67;;;;;;;16.10;52.04;101521.34;1582526;90;21047;-49
2021/09/23 01:42:21;;;;;;;5.22;4.72;;;;;;;16.10;52.09;101522.20;1615435;88;21023;-49
2021/09/23 01:44:48;;;;;;;5.30;4.80;;;;;;;16.11;52.26;101523.94;1613968;88;21571;-49
2021/09/23 01:47:18;;;;;;;5.97;4.70;;;;;;;16.13;52.41;101511.63;1612451;88;21111;-50
2021/09/23 01:49:46;;;;;;;6.08;4.05;;;;;;;16.13;52.57;101511.63;1612671;88;21029;-50
2021/09/23 01:52:13;;;;;;;6.12;5.00;;;;;;;16.13;52.75;101513.38;1613199;88;21136;-50
2021/09/23 01:54:43;;;;;;;5.28;4.70;;;;;;;16.13;52.78;101513.38;1612303;88;21583;-50
2021/09/23 01:57:10;;;;;;;5.65;4.45;;;;;;;16.11;52.79;101514.75;1610855;88;21081;-49
2021/09/23 01:59:37;;;;;;;5.50;4.50;;;;;;;16.08;52.98;101516.15;1614669;88;21050;-49
2021/09/23 02:02:07;;;;;;;6.10;4.87;;;;;;;16.05;53.24;101516.23;1619358;88;21057;-50
2021/09/23 02:04:34;;;;;;;5.12;4.72;;;;;;;16.02;53.40;101516.35;1582202;89;21591;-49
2021/09/23 02:07:04;;;;;;;5.12;4.60;;;;;;;15.98;53.35;101516.48;1592952;89;21070;-49
2021/09/23 02:09:32;;;;;;;6.08;5.22;;;;;;;15.95;53.39;101517.44;1626502;87;21011;-49
2021/09/23 02:12:03;;;;;;;5.58;4.37;;;;;;;15.93;53.55;101515.80;1710609;83;21089;-47
2021/09/23 02:14:31;;;;;;;5.90;5.30;;;;;;;15.91;53.73;101523.69;1705169;83;21030;-46
2021/09/23 02:16:58;;;;;;;7.22;5.50;;;;;;;15.88;53.60;101519.88;1708971;83;21078;-49
2021/09/23 02:19:42;;;;;;;7.70;5.12;;;;;;;15.85;53.73;101514.70;1708582;83;21583;-49
2021/09/23 02:22:11;;;;;;;6.03;5.40;;;;;;;15.80;53.55;101515.77;1708538;83;21086;-50
2021/09/23 02:24:38;;;;;;;5.30;4.80;;;;;;;15.76;53.78;101516.77;1710374;83;21565;-49
2021/09/23 02:27:07;;;;;;;9.93;5.60;;;;;;;15.72;53.78;101509.89;1710285;83;21534;-47
2021/09/23 02:29:35;;;;;;;6.70;6.05;;;;;;;15.69;53.77;101508.22;1717118;83;21568;-49
2021/09/23 02:32:05;;;;;;;6.20;5.60;;;;;;;15.66;54.19;101509.61;1705475;83;21117;-51
2021/09/23 02:34:32;;;;;;;6.37;5.78;;;;;;;15.66;54.49;101512.71;1631673;87;21628;-47
2021/09/23 02:36:59;;;;;;;6.47;5.85;;;;;;;15.63;54.36;101508.41;1631575;87;21016;-49
2021/09/23 02:39:26;;;;;;;7.62;6.08;;;;;;;15.61;54.32;101502.34;1662686;84;21574;-49
2021/09/23 02:41:54;;;;;;;7.25;6.58;;;;;;;15.61;54.50;101502.34;1681940;84;21038;-49
2021/09/23 02:44:22;;;;;;;6.33;5.30;;;;;;;15.60;54.56;101503.23;1681758;84;21082;-50
2021/09/23 02:46:49;;;;;;;5.83;5.22;;;;;;;15.58;54.51;101505.05;1690389;84;21066;-49
2021/09/23 02:49:17;;;;;;;7.55;5.42;;;;;;;15.58;54.56;101498.97;1685149;84;21051;-49
2021/09/23 02:51:45;;;;;;;6.03;5.42;;;;;;;15.57;54.50;101498.55;1685948;84;21047;-49
2021/09/23 02:54:13;;;;;;;4.83;4.42;;;;;;;15.55;54.62;101499.91;1684270;84;21012;-49
2021/09/23 02:56:40;;;;;;;6.15;4.97;;;;;;;15.53;54.52;101497.79;1687157;84;21019;-49
2021/09/23 02:59:08;;;;;;;6.12;4.70;;;;;;;15.54;54.67;101498.18;1692284;84;21109;-49
2021/09/23 03:01:37;;;;;;;7.30;5.00;;;;;;;15.54;54.52;101498.66;1685491;84;21043;-49
2021/09/23 03:04:05;;;;;;;5.10;4.60;;;;;;;15.52;54.42;101494.75;1685598;84;21559;-48
2021/09/23 03:06:32;;;;;;;5.72;5.12;;;;;;;15.51;54.79;101500.91;1682698;83;21211;-46
2021/09/23 03:09:00;;;;;;;5.45;4.95;;;;;;;15.49;55.05;101500.10;1682011;84;21053;-50
2021/09/23 03:11:29;;;;;;;6.03;5.42;;;;;;;15.49;55.06;101498.79;1682397;84;21110;-49
2021/09/23 03:13:57;;;;;;;4.87;4.37;;;;;;;15.47;55.18;101500.59;1686981;84;21054;-50
2021/09/23 03:16:25;;;;;;;4.80;4.40;;;;;;;15.48;55.21;101508.86;1696108;84;21551;-49
2021/09/23 03:18:52;;;;;;;5.72;5.15;;;;;;;15.48;55.08;101503.61;1684211;84;20976;-47
2021/09/23 03:21:19;;;;;;;5.05;4.65;;;;;;;15.46;55.04;101506.30;1681784;84;21105;-49
2021/09/23 03:23:48;;;;;;;5.33;4.45;;;;;;;15.48;55.31;101510.64;1685998;84;21047;-49
2021/09/23 03:26:15;;;;;;;5.10;4.60;;;;;;;15.46;55.44;101511.98;1683031;84;21019;-50
2021/09/23 03:28:43;;;;;;;5.20;4.70;;;;;;;15.47;55.58;101511.09;1682041;84;21066;-50
2021/09/23 03:31:11;;;;;;;5.08;4.58;;;;;;;15.47;55.73;101511.09;1719918;80;21072;-49
2021/09/23 03:33:38;;;;;;;5.50;4.70;;;;;;;15.45;55.70;101513.77;1771751;80;21013;-49
2021/09/23 03:36:06;;;;;;;5.12;4.22;;;;;;;15.43;55.68;101514.71;1772824;80;21481;-50
2021/09/23 03:38:32;;;;;;;9.45;4.62;;;;;;;15.42;55.51;101506.39;1773211;80;20942;-50
2021/09/23 03:40:59;;;;;;;5.58;4.28;;;;;;;15.42;55.52;101519.09;1772741;80;21026;-52
2021/09/23 03:43:26;;;;;;;4.50;4.10;;;;;;;15.41;55.55;101513.86;1772646;80;21490;-50
2021/09/23 03:45:56;;;;;;;4.53;4.05;;;;;;;15.39;55.37;101513.05;1771935;80;21036;-49
2021/09/23 03:48:23;;;;;;;5.03;4.28;;;;;;;15.37;55.24;101515.69;1770569;80;21552;-50
2021/09/23 03:50:52;;;;;;;3.75;3.35;;;;;;;15.38;54.98;101520.50;1778717;80;21006;-47
2021/09/23 03:53:20;;;;;;;4.33;3.92;;;;;;;15.39;54.62;101523.55;1771569;80;21038;-49
2021/09/23 03:55:47;;;;;;;4.10;3.65;;;;;;;15.38;54.53;101516.56;1743085;80;21000;-49
2021/09/23 03:58:15;;;;;;;4.83;4.42;;;;;;;15.39;54.49;101518.30;1769857;80;21009;-49
2021/09/23 04:00:43;;;;;;;5.78;3.67;;;;;;;15.39;54.36;101527.48;1770229;80;21536;-50
2021/09/23 04:03:10;;;;;;;5.78;4.05;;;;;;;15.39;54.23;101527.48;1772771;80;21040;-49
2021/09/23 04:05:37;;;;;;;5.30;4.37;;;;;;;15.38;54.63;101528.36;1772777;80;21017;-50
2021/09/23 04:08:05;;;;;;;4.47;4.08;;;;;;;15.37;54.94;101526.66;1772888;80;21005;-50
2021/09/23 04:10:32;;;;;;;4.72;3.70;;;;;;;15.36;54.91;101528.42;1751874;80;21080;-49
2021/09/23 04:13:00;;;;;;;4.87;4.20;;;;;;;15.35;54.79;101529.30;1775841;80;21018;-49
2021/09/23 04:15:27;;;;;;;4.60;4.20;;;;;;;15.36;54.94;101534.11;1774064;80;21014;-48
2021/09/23 04:17:55;;;;;;;5.83;4.03;;;;;;;15.36;55.36;101530.17;1782747;80;20977;-50
2021/09/23 04:20:22;;;;;;;4.30;3.85;;;;;;;15.37;55.08;101539.30;1775272;80;20990;-49
2021/09/23 04:22:52;;;;;;;4.17;3.77;;;;;;;15.37;54.81;101543.70;1773419;80;21053;-49
2021/09/23 04:25:19;;;;;;;5.90;4.10;;;;;;;15.34;54.79;101545.09;1767044;80;20966;-50
2021/09/23 04:27:46;;;;;;;4.60;3.60;;;;;;;15.32;54.89;101545.59;1771453;80;21018;-50
2021/09/23 04:30:14;;;;;;;5.95;4.12;;;;;;;15.28;54.95;101545.27;1769854;80;20998;-49
2021/09/23 04:32:41;;;;;;;4.72;4.20;;;;;;;15.26;54.79;101543.14;1767756;80;21553;-46
2021/09/23 04:35:10;;;;;;;4.83;4.17;;;;;;;15.25;55.11;101547.52;1756702;80;21073;-50
2021/09/23 04:37:37;;;;;;;6.83;4.30;;;;;;;15.28;55.34;101545.27;1767287;80;20975;-49
2021/09/23 04:40:06;;;;;;;4.45;4.05;;;;;;;15.29;55.55;101554.39;1768633;80;21545;-49
2021/09/23 04:42:32;;;;;;;4.22;3.83;;;;;;;15.31;55.52;101551.75;1765827;80;21013;-48
2021/09/23 04:45:00;;;;;;;5.30;4.37;;;;;;;15.31;55.33;101555.21;1765792;80;21037;-49
2021/09/23 04:47:29;;;;;;;5.33;4.45;;;;;;;15.30;55.10;101553.95;1765048;80;20993;-49
2021/09/23 04:49:55;;;;;;;4.58;3.98;;;;;;;15.28;55.26;101553.13;1769433;80;20957;-49
2021/09/23 04:52:22;;;;;;;4.62;4.10;;;;;;;15.29;55.29;101555.70;1768811;80;21017;-50
2021/09/23 04:54:49;;;;;;;6.70;4.30;;;;;;;15.29;55.43;101557.02;1768771;80;21030;-50
2021/09/23 04:57:18;;;;;;;4.85;4.40;;;;;;;15.30;55.35;101563.13;1754741;80;21014;-49
2021/09/23 04:59:47;;;;;;;9.45;5.25;;;;;;;15.29;55.15;101564.05;1773248;80;20990;-49
2021/09/23 05:02:15;;;;;;;5.90;5.05;;;;;;;15.28;55.33;101563.62;1765708;80;21018;-49
2021/09/23 05:04:44;;;;;;;4.33;3.92;;;;;;;15.26;55.37;101566.73;1766941;80;20986;-48
2021/09/23 05:07:13;;;;;;;4.28;3.83;;;;;;;15.25;55.39;101566.34;1756345;80;21061;-49
2021/09/23 05:09:39;;;;;;;5.87;4.17;;;;;;;15.24;55.25;101564.17;1768062;80;21005;-47
2021/09/23 05:12:10;;;;;;;5.30;3.50;;;;;;;15.25;55.16;101567.66;1776791;80;21053;-49
2021/09/23 05:14:37;;;;;;;5.90;4.65;;;;;;;15.26;55.20;101564.12;1765564;80;21541;-50
2021/09/23 05:17:06;;;;;;;8.00;4.95;;;;;;;15.26;55.07;101568.92;1769638;80;21017;-50
2021/09/23 05:19:34;;;;;;;5.80;3.35;;;;;;;15.26;55.20;101562.80;1769153;80;20986;-49
2021/09/23 05:22:03;;;;;;;4.08;3.30;;;;;;;15.30;55.12;101573.62;1775918;80;21640;-49
2021/09/23 05:24:30;;;;;;;6.70;3.80;;;;;;;15.32;55.11;101563.94;1767913;80;21558;-49
2021/09/23 05:26:58;;;;;;;3.67;2.80;;;;;;;15.34;54.79;101570.00;1766783;80;21042;-53
2021/09/23 05:29:25;;;;;;;4.97;3.37;;;;;;;15.34;54.65;101570.00;1771219;80;21019;-49
2021/09/23 05:31:55;;;;;;;3.55;3.22;;;;;;;15.35;54.45;101580.44;1763723;80;21597;-50
2021/09/23 05:34:22;;;;;;;5.15;3.47;;;;;;;15.36;54.27;101578.69;1766871;80;20981;-49
2021/09/23 05:36:50;;;;;;;3.72;3.27;;;;;;;15.35;54.02;101576.98;1769444;80;21415;-49
2021/09/23 05:39:16;;;;;;;3.17;2.85;;;;;;;15.31;54.05;101580.59;1769291;80;20978;-50
2021/09/23 05:41:43;;;;;;;3.87;3.40;;;;;;;15.32;54.09;101577.05;1768909;80;21025;-49
2021/09/23 05:44:10;;;;;;;4.00;3.47;;;;;;;15.34;53.91;101580.49;1769190;80;21530;-49
2021/09/23 05:46:37;;;;;;;4.05;3.40;;;;;;;15.35;54.05;101580.44;1767890;80;21022;-49
2021/09/23 05:49:05;;;;;;;4.37;3.62;;;;;;;15.37;54.13;101588.29;1765877;80;21041;-51
2021/09/23 05:51:32;;;;;;;4.55;4.03;;;;;;;15.41;53.86;101592.55;1766433;80;21498;-49
2021/09/23 05:53:59;;;;;;;5.53;4.28;;;;;;;15.43;53.37;101582.91;1768980;80;21026;-49
2021/09/23 05:56:27;;;;;;;7.62;4.08;;;;;;;15.48;53.09;101586.71;1767650;80;21065;-50
2021/09/23 05:58:55;;;;;;;4.87;4.08;;;;;;;15.51;52.83;101587.47;1771698;80;21064;-49
2021/09/23 06:01:22;;;;;;;4.58;4.05;;;;;;;15.57;52.46;101580.73;1764888;80;20997;-52
2021/09/23 06:03:51;;;;;;;4.90;3.90;;;;;;;15.64;52.24;101589.30;1765880;80;21037;-52
2021/09/23 06:06:19;;;;;;;3.70;3.40;;;;;;;15.69;52.32;101582.13;1762258;80;21490;-49
2021/09/23 06:08:46;;;;;;;4.22;3.33;;;;;;;15.73;52.46;101595.12;1768677;80;21053;-50
2021/09/23 06:11:13;;;;;;;3.40;3.02;;;;;;;15.76;51.98;101600.29;1765891;80;21055;-49
2021/09/23 06:13:43;;;;;;;4.15;2.80;;;;;;;15.78;51.66;101601.55;1765884;80;21014;-49
2021/09/23 06:16:11;;;;;;;4.85;2.75;;;;;;;15.80;51.73;101597.98;1767303;80;21025;-49
2021/09/23 06:18:39;;;;;;;2.42;2.17;;;;;;;15.81;51.36;101606.24;1769547;80;21041;-47
2021/09/23 06:21:08;;;;;;;2.58;2.17;;;;;;;15.80;51.32;101607.16;1779355;80;20999;-49
2021/09/23 06:23:35;;;;;;;3.37;1.92;;;;;;;15.80;51.18;101604.54;1765271;80;21005;-50
2021/09/23 06:26:02;;;;;;;3.65;2.65;;;;;;;15.78;50.71;101601.11;1765769;80;20998;-50
2021/09/23 06:28:32;;;;;;;2.20;1.77;;;;;;;15.80;50.89;101596.67;1767433;80;21060;-47
2021/09/23 06:31:02;;;;;;;4.20;1.80;;;;;;;15.80;50.62;101597.98;1768473;80;21049;-50
2021/09/23 06:33:29;;;;;;;4.80;2.30;;;;;;;15.82;50.74;101599.23;1767464;80;21061;-50
2021/09/23 06:35:57;;;;;;;7.83;2.95;;;;;;;15.81;50.58;101599.68;1771837;80;21013;-50
2021/09/23 06:38:24;;;;;;;2.77;2.10;;;;;;;15.82;50.77;101605.35;1764405;80;21056;-47
2021/09/23 06:40:54;;;;;;;2.45;2.10;;;;;;;15.82;50.70;101602.73;1766244;80;21451;-50
2021/09/23 06:43:19;;;;;;;1.60;1.42;;;;;;;15.81;50.74;101602.30;1763093;80;21041;-47
2021/09/23 06:45:45;;;;;;;1.70;1.40;;;;;;;15.78;49.94;101605.04;1769123;80;21013;-50
2021/09/23 06:48:12;;;;;;;3.22;1.70;;;;;;;15.77;49.69;101604.62;1778964;80;20986;-52
2021/09/23 06:50:39;;;;;;;5.03;3.12;;;;;;;15.77;49.83;101604.62;1765677;80;20998;-50
2021/09/23 06:53:05;;;;;;;9.23;2.87;;;;;;;15.79;49.97;101604.12;1766952;80;21013;-49
2021/09/23 06:55:33;;;;;;;3.05;2.00;;;;;;;15.81;50.29;101603.63;1769104;80;21096;-50
2021/09/23 06:58:01;;;;;;;2.87;1.90;;;;;;;15.85;50.53;101608.31;1768879;80;21533;-49
2021/09/23 07:00:47;;;;;;;2.52;1.70;;;;;;;15.90;50.89;101613.86;1769257;80;21002;-49
2021/09/23 07:03:25;;;;;;;5.65;2.00;;;;;;;15.96;50.66;101618.05;1769227;80;20985;-49
2021/09/23 07:05:55;;;;;;;3.37;1.50;;;;;;;15.96;50.07;101608.42;1728856;82;21561;-49
2021/09/23 07:08:23;;;;;;;1.40;1.17;;;;;;;15.94;49.66;101610.23;1729544;83;21037;-49
2021/09/23 07:10:50;;;;;;;2.10;1.20;;;;;;;16.01;49.27;101613.06;1729811;83;21036;-47
2021/09/23 07:13:18;;;;;;;3.08;1.20;;;;;;;16.05;48.88;101613.37;1729774;83;21013;-50
2021/09/23 07:15:46;;;;;;;1.67;1.00;;;;;;;16.10;48.77;101612.79;1729788;83;21018;-48
2021/09/23 07:18:13;;;;;;;1.62;1.22;;;;;;;16.12;48.93;101614.05;1729460;83;21073;-50
2021/09/23 07:20:40;;;;;;;1.50;0.93;;;;;;;16.15;48.42;101617.46;1716899;83;21016;-50
2021/09/23 07:23:09;;;;;;;4.70;1.20;;;;;;;16.15;48.32;101617.46;1729807;83;21037;-51
2021/09/23 07:25:36;;;;;;;2.83;1.98;;;;;;;16.14;48.68;101620.98;1729854;83;21049;-50
2021/09/23 07:28:03;;;;;;;1.40;1.30;;;;;;;16.12;48.81;101618.85;1729947;83;20961;-49
2021/09/23 07:30:30;;;;;;;2.33;1.50;;;;;;;16.08;48.93;101618.54;1730028;83;21522;-49
2021/09/23 07:32:58;;;;;;;1.57;1.47;;;;;;;16.03;48.95;101612.56;1729464;83;21640;-48
2021/09/23 07:35:27;;;;;;;2.75;1.90;;;;;;;15.98;48.92;101617.11;1671095;85;21053;-49
2021/09/23 07:37:55;;;;;;;3.95;2.05;;;;;;;15.98;49.21;101615.80;1694499;85;21070;-49
2021/09/23 07:40:23;;;;;;;2.83;2.00;;;;;;;15.98;49.33;101616.23;1729858;83;21530;-50
2021/09/23 07:42:50;;;;;;;2.08;1.67;;;;;;;15.97;49.05;101620.63;1748150;80;21084;-49
2021/09/23 07:45:17;;;;;;;3.12;2.08;;;;;;;15.98;49.36;101617.11;1785767;80;21064;-49
2021/09/23 07:47:46;;;;;;;5.47;2.10;;;;;;;15.99;49.34;101622.75;1779411;80;21017;-52
2021/09/23 07:50:14;;;;;;;2.00;1.75;;;;;;;16.01;49.14;101615.69;1778608;80;21069;-49
2021/09/23 07:52:42;;;;;;;2.20;1.90;;;;;;;16.03;49.05;101619.13;1752523;80;21006;-47
2021/09/23 07:55:09;;;;;;;4.15;1.80;;;;;;;16.04;49.08;101620.86;1783253;80;20998;-50
2021/09/23 07:57:39;;;;;;;3.00;1.90;;;;;;;16.05;49.34;101614.69;1778023;80;21029;-50
2021/09/23 08:00:07;;;;;;;3.62;1.75;;;;;;;16.09;49.33;101616.30;1778470;80;21509;-50
2021/09/23 08:02:36;;;;;;;5.00;2.00;;;;;;;16.13;49.15;101612.71;1783768;79;21044;-49
2021/09/23 08:05:05;;;;;;;3.25;2.20;;;;;;;16.19;48.92;101616.45;1768242;80;20977;-50
2021/09/23 08:07:32;;;;;;;4.28;2.20;;;;;;;16.26;48.85;101614.47;1777281;80;21454;-50
2021/09/23 08:09:58;;;;;;;4.87;2.08;;;;;;;16.30;48.78;101616.96;1779544;80;21064;-51
2021/09/23 08:12:27;;;;;;;4.90;2.30;;;;;;;16.34;48.51;101614.25;1777258;80;20978;-50
2021/09/23 08:14:53;;;;;;;2.35;2.15;;;;;;;16.39;48.14;101622.83;1776582;80;21044;-50
2021/09/23 08:17:34;;;;;;;1.65;1.55;;;;;;;16.44;47.84;101616.98;1730558;83;21547;-50
2021/09/23 08:20:13;;;;;;;2.10;1.90;;;;;;;16.48;47.57;101619.47;1726889;83;21030;-49
2021/09/23 08:22:45;;;;;;;2.15;1.95;;;;;;;16.49;47.65;101616.36;1730307;83;21035;-50
2021/09/23 08:25:13;;;;;;;2.42;2.22;;;;;;;16.48;47.32;101619.92;1723917;83;21143;-49
2021/09/23 08:27:40;;;;;;;3.30;2.30;;;;;;;16.45;47.25;101612.12;1730008;83;20986;-49
2021/09/23 08:30:08;;;;;;;2.37;2.17;;;;;;;16.43;47.30;101611.31;1730272;83;21018;-47
2021/09/23 08:32:36;;;;;;;2.72;2.15;;;;;;;16.46;47.25;101611.23;1731092;82;21499;-49
2021/09/23 08:35:06;;;;;;;3.85;1.92;;;;;;;16.49;47.31;101611.11;1733003;82;21037;-49
2021/09/23 08:37:35;;;;;;;2.05;1.70;;;;;;;16.49;46.94;101607.17;1734764;82;20998;-49
2021/09/23 08:42:44;;;;;;;2.35;2.02;;;;;;;16.44;46.46;101609.97;1658951;86;21084;-50
2021/09/23 08:45:14;;;;;;;1.42;1.30;;;;;;;16.45;46.41;101612.12;1658052;86;21037;-47
2021/09/23 08:47:42;;;;;;;3.42;1.32;;;;;;;16.48;46.10;101607.65;1659301;86;21041;-49
2021/09/23 08:50:12;;;;;;;2.25;1.55;;;;;;;16.52;46.20;101605.80;1659462;86;21061;-49
2021/09/23 08:52:41;;;;;;;4.08;1.85;;;;;;;16.56;45.99;101604.80;1654561;86;21026;-48
2021/09/23 08:55:21;;;;;;;3.45;1.87;;;;;;;16.58;46.45;101609.55;1653328;86;21061;-47
2021/09/23 08:57:49;;;;;;;3.45;2.15;;;;;;;16.57;46.99;101609.16;1652098;86;21041;-49
2021/09/23 09:00:18;;;;;;;2.95;1.87;;;;;;;16.54;47.01;101612.73;1659160;86;21053;-48
2021/09/23 09:03:05;;;;;;;2.55;1.67;;;;;;;16.52;46.81;101613.69;1658959;86;21053;-49
2021/09/23 09:05:37;;;;;;;2.42;1.52;;;;;;;16.51;46.56;101611.95;1591044;89;21084;-49
2021/09/23 09:08:13;;;;;;;4.90;2.25;;;;;;;16.49;46.47;101617.67;1508011;94;21164;-47
2021/09/23 09:11:03;;;;;;;3.45;2.40;;;;;;;16.47;46.43;101622.12;1507113;94;21603;-49
2021/09/23 09:13:36;;;;;;;3.22;2.65;;;;;;;16.42;46.07;101617.48;1507703;94;21069;-49
2021/09/23 09:16:18;;;;;;;2.40;2.00;;;;;;;16.37;46.43;101619.39;1474599;95;21140;-50
2021/09/23 09:18:49;;;;;;;5.58;2.10;;;;;;;16.34;46.87;101622.12;1474525;96;21652;-49
2021/09/23 09:21:19;;;;;;;3.30;2.17;;;;;;;16.33;46.99;101616.45;1473859;96;21127;-50
2021/09/23 09:23:52;;;;;;;2.83;2.20;;;;;;;16.34;47.00;101616.87;1480136;96;21099;-49
2021/09/23 09:26:41;;;;;;;6.58;2.02;;;;;;;16.35;47.31;101615.95;1445278;99;21117;-50
2021/09/23 09:29:09;;;;;;;2.80;1.82;;;;;;;16.36;47.42;101615.93;1439923;99;21142;-51
2021/09/23 09:31:37;;;;;;;2.85;2.15;;;;;;;16.43;47.23;101625.76;1445357;99;21121;-46
2021/09/23 09:34:05;;;;;;;20.12;2.40;;;;;;;16.48;47.53;101629.11;1442368;99;21641;-49
2021/09/23 09:36:41;;;;;;;5.62;2.08;;;;;;;16.52;47.78;101628.14;1407475;102;21147;-49
2021/09/23 09:39:14;;;;;;;2.52;1.80;;;;;;;16.54;47.36;101620.62;1394603;102;21124;-50
2021/09/23 09:41:45;;;;;;;2.92;1.67;;;;;;;16.57;46.88;101622.30;1413533;101;21203;-50
2021/09/23 09:44:14;;;;;;;3.37;1.82;;;;;;;16.56;46.14;101628.44;1424628;100;21164;-50
2021/09/23 09:49:17;;;;;;;2.20;1.45;;;;;;;16.52;46.75;101624.20;1461813;98;21677;-50
2021/09/23 09:52:00;;;;;;;3.17;1.85;;;;;;;16.51;46.63;101626.41;1462876;98;21154;-51
2021/09/23 09:54:30;;;;;;;2.50;1.40;;;;;;;16.49;46.74;101624.25;1474663;97;21087;-51
2021/09/23 09:57:01;;;;;;;3.77;1.70;;;;;;;16.46;47.00;101629.17;1476100;97;21683;-51
2021/09/23 09:59:32;;;;;;;1.32;1.10;;;;;;;16.45;47.08;101620.87;1470012;97;21064;-51
2021/09/23 10:01:59;;;;;;;1.55;1.20;;;;;;;16.47;47.25;101616.87;1476656;97;21187;-50
2021/09/23 10:04:29;;;;;;;1.30;1.17;;;;;;;16.50;47.69;101618.13;1511877;94;21072;-49
2021/09/23 10:07:02;;;;;;;1.62;1.32;;;;;;;16.52;47.57;101618.50;1520550;94;21125;-49
2021/09/23 10:09:35;;;;;;;1.98;1.20;;;;;;;16.53;47.32;101620.64;1513376;94;21164;-49
2021/09/23 10:12:05;;;;;;;1.57;1.10;;;;;;;16.53;47.43;101624.14;1522574;89;21097;-49
2021/09/23 10:14:33;;;;;;;1.32;1.02;;;;;;;16.54;46.99;101615.81;1632274;87;21065;-49
2021/09/23 10:17:01;;;;;;;2.72;1.37;;;;;;;16.54;47.28;101622.38;1616620;87;21044;-49
2021/09/23 10:19:30;;;;;;;3.00;1.12;;;;;;;16.57;46.68;101617.88;1638354;87;21561;-47
2021/09/23 10:21:58;;;;;;;1.72;1.07;;;;;;;16.61;46.33;101618.66;1616774;87;21557;-50
2021/09/23 10:24:25;;;;;;;1.82;1.37;;;;;;;16.64;46.10;101620.72;1641075;86;21041;-49
2021/09/23 10:26:52;;;;;;;2.10;1.50;;;;;;;16.67;46.32;101619.28;1685060;84;21046;-46
2021/09/23 10:29:19;;;;;;;2.25;1.50;;;;;;;16.70;46.38;101619.64;1686055;84;21045;-49
2021/09/23 10:31:45;;;;;;;2.52;1.50;;;;;;;16.70;46.52;101620.96;1685255;84;21116;-47
2021/09/23 10:34:13;;;;;;;2.62;1.72;;;;;;;16.68;46.05;101624.09;1685708;84;21007;-50
2021/09/23 10:36:41;;;;;;;1.77;1.35;;;;;;;16.68;46.20;101626.72;1690382;84;21515;-49
2021/09/23 10:39:10;;;;;;;3.58;1.98;;;;;;;16.69;46.18;101631.92;1684485;84;21084;-50
2021/09/23 10:41:41;;;;;;;2.30;1.75;;;;;;;16.68;46.20;101625.41;1685346;84;21069;-49
2021/09/23 10:44:08;;;;;;;2.40;1.57;;;;;;;16.69;46.77;101623.20;1686270;84;21035;-49
2021/09/23 10:46:35;;;;;;;1.95;1.45;;;;;;;16.70;46.77;101620.96;1733278;80;20958;-49
2021/09/23 10:49:05;;;;;;;2.85;1.30;;;;;;;16.70;46.80;101624.45;1788745;80;21014;-52
2021/09/23 10:51:35;;;;;;;3.17;1.87;;;;;;;16.73;46.91;101631.38;1779096;80;21060;-49
2021/09/23 10:54:12;;;;;;;2.75;1.30;;;;;;;16.72;46.74;101621.31;1778150;80;21069;-50
2021/09/23 10:56:40;;;;;;;2.33;1.75;;;;;;;16.69;46.64;101625.34;1719744;80;20977;-52
2021/09/23 10:59:10;;;;;;;2.60;1.77;;;;;;;16.68;46.45;101629.34;1744118;80;21038;-51
2021/09/23 11:01:39;;;;;;;3.10;1.62;;;;;;;16.67;46.62;101627.65;1751016;80;21072;-49
2021/09/23 11:04:07;;;;;;;1.02;0.95;;;;;;;16.67;46.01;101625.02;1776188;80;21021;-49
2021/09/23 11:06:39;;;;;;;1.90;1.20;;;;;;;16.70;45.90;101622.27;1734202;80;21002;-50
2021/09/23 11:09:26;;;;;;;1.12;1.02;;;;;;;16.75;45.81;101617.73;1796775;80;21019;-50
2021/09/23 11:12:06;;;;;;;2.02;1.37;;;;;;;16.80;45.95;101623.68;1734997;83;21041;-50
2021/09/23 11:14:36;;;;;;;2.77;1.25;;;;;;;16.87;45.45;101618.63;1715596;83;21009;-50
2021/09/23 11:17:07;;;;;;;1.25;0.93;;;;;;;16.90;45.19;101618.52;1702606;83;21025;-50
2021/09/23 11:19:36;;;;;;;1.07;0.97;;;;;;;16.91;44.60;101620.25;1705965;84;21045;-50
2021/09/23 11:22:04;;;;;;;1.32;0.90;;;;;;;16.93;45.14;101622.37;1705743;83;21104;-47
2021/09/23 11:24:32;;;;;;;2.33;0.70;;;;;;;16.96;45.79;101629.69;1710784;83;21053;-50
2021/09/23 11:27:01;;;;;;;1.22;0.85;;;;;;;17.01;44.75;101627.77;1693821;83;21025;-52
2021/09/23 11:29:31;;;;;;;2.62;0.90;;;;;;;17.07;44.35;101626.69;1734746;83;20998;-47
2021/09/23 11:31:58;;;;;;;1.40;1.30;;;;;;;17.11;44.14;101626.98;1734670;83;21029;-49
2021/09/23 11:34:39;;;;;;;1.77;1.37;;;;;;;17.08;44.06;101626.63;1722000;83;21046;-49
2021/09/23 11:37:09;;;;;;;2.08;1.52;;;;;;;17.07;43.81;101628.01;1713511;84;21526;-51
2021/09/23 11:39:46;;;;;;;1.32;1.15;;;;;;;17.04;44.09;101625.02;1709775;84;21042;-50